createdAt,value
2022-08-26T00:00:08.255Z,19.05
2022-08-26T00:02:38.012Z,19.11
2022-08-26T00:05:06.606Z,19.05
2022-08-26T00:07:34.512Z,19.03
2022-08-26T00:10:03.585Z,18.99
2022-08-26T00:12:37.320Z,18.97
2022-08-26T00:15:07.009Z,18.86
2022-08-26T00:17:35.063Z,18.94
2022-08-26T00:20:03.185Z,18.88
2022-08-26T00:22:31.243Z,18.80
2022-08-26T00:24:58.971Z,18.79
2022-08-26T00:27:28.155Z,18.83
2022-08-26T00:29:56.028Z,18.80
2022-08-26T00:32:24.548Z,18.77
2022-08-26T00:34:53.976Z,18.72
2022-08-26T00:37:21.990Z,18.79
2022-08-26T00:39:50.076Z,18.78
2022-08-26T00:42:17.915Z,18.74
2022-08-26T00:44:47.091Z,18.95
2022-08-26T00:47:23.899Z,18.93
2022-08-26T00:49:52.679Z,18.72
2022-08-26T00:52:24.076Z,18.78
2022-08-26T00:55:01.045Z,18.80
2022-08-26T00:57:30.426Z,18.58
2022-08-26T01:00:02.367Z,18.59
2022-08-26T01:02:30.315Z,18.51
2022-08-26T01:05:01.690Z,18.47
2022-08-26T01:07:34.771Z,18.44
2022-08-26T01:10:06.170Z,18.44
2022-08-26T01:12:42.027Z,18.46
2022-08-26T01:15:16.444Z,18.52
2022-08-26T01:17:44.451Z,18.43
2022-08-26T01:20:25.384Z,18.45
2022-08-26T01:22:57.895Z,18.45
2022-08-26T01:25:31.504Z,18.38
2022-08-26T01:28:03.057Z,18.37
2022-08-26T01:30:32.167Z,18.23
2022-08-26T01:33:04.904Z,18.20
2022-08-26T01:35:33.032Z,18.16
2022-08-26T01:38:02.330Z,17.92
2022-08-26T01:40:34.735Z,18.12
2022-08-26T01:43:03.329Z,18.16
2022-08-26T01:45:34.339Z,18.20
2022-08-26T01:48:05.463Z,18.16
2022-08-26T01:50:36.467Z,18.09
2022-08-26T01:53:09.503Z,18.06
2022-08-26T01:55:40.183Z,17.97
2022-08-26T01:58:14.475Z,17.91
2022-08-26T02:00:44.209Z,17.89
2022-08-26T02:03:18.644Z,17.87
2022-08-26T02:05:47.474Z,17.92
2022-08-26T02:08:24.819Z,17.86
2022-08-26T02:10:54.753Z,17.86
2022-08-26T02:13:24.366Z,17.53
2022-08-26T02:15:53.231Z,17.66
2022-08-26T02:18:21.895Z,17.82
2022-08-26T02:20:51.645Z,17.80
2022-08-26T02:23:21.111Z,17.87
2022-08-26T02:25:57.232Z,17.95
2022-08-26T02:28:28.020Z,17.86
2022-08-26T02:30:56.513Z,17.88
2022-08-26T02:33:24.635Z,17.83
2022-08-26T02:35:52.979Z,17.83
2022-08-26T02:38:22.403Z,17.74
2022-08-26T02:40:51.106Z,17.81
2022-08-26T02:43:18.991Z,17.90
2022-08-26T02:46:01.831Z,17.89
2022-08-26T02:48:30.116Z,17.87
2022-08-26T02:51:00.503Z,17.82
2022-08-26T02:53:31.796Z,17.88
2022-08-26T02:55:59.961Z,17.89
2022-08-26T02:58:27.766Z,17.91
2022-08-26T03:00:55.534Z,17.92
2022-08-26T03:03:23.673Z,17.92
2022-08-26T03:05:51.619Z,17.96
2022-08-26T03:08:19.513Z,17.91
2022-08-26T03:10:49.429Z,17.86
2022-08-26T03:13:18.141Z,17.83
2022-08-26T03:15:46.052Z,17.76
2022-08-26T03:18:16.242Z,17.83
2022-08-26T03:20:44.116Z,17.83
2022-08-26T03:23:12.542Z,17.74
2022-08-26T03:25:40.519Z,17.71
2022-08-26T03:28:09.803Z,17.94
2022-08-26T03:30:44.911Z,17.84
2022-08-26T03:33:14.502Z,17.98
2022-08-26T03:35:44.061Z,18.01
2022-08-26T03:38:12.863Z,18.02
2022-08-26T03:40:42.506Z,17.97
2022-08-26T03:43:13.739Z,18.00
2022-08-26T03:45:41.919Z,17.86
2022-08-26T03:48:11.348Z,17.80
2022-08-26T03:50:39.940Z,17.98
2022-08-26T03:53:13.045Z,17.78
2022-08-26T03:55:41.322Z,17.84
2022-08-26T03:58:09.407Z,17.83
2022-08-26T04:00:38.550Z,17.91
2022-08-26T04:03:09.822Z,17.73
2022-08-26T04:05:38.925Z,17.87
2022-08-26T04:08:06.979Z,17.75
2022-08-26T04:10:35.180Z,17.90
2022-08-26T04:13:02.835Z,17.91
2022-08-26T04:15:31.928Z,17.91
2022-08-26T04:18:03.057Z,17.81
2022-08-26T04:20:31.310Z,17.88
2022-08-26T04:22:59.133Z,17.85
2022-08-26T04:25:27.009Z,18.18
2022-08-26T04:27:55.472Z,18.01
2022-08-26T04:30:23.301Z,18.06
2022-08-26T04:32:53.255Z,17.98
2022-08-26T04:35:25.646Z,18.13
2022-08-26T04:37:54.087Z,18.19
2022-08-26T04:40:22.009Z,18.24
2022-08-26T04:42:50.276Z,18.24
2022-08-26T04:45:18.847Z,18.30
2022-08-26T04:47:54.425Z,18.40
2022-08-26T04:50:25.791Z,18.39
2022-08-26T04:52:55.094Z,18.41
2022-08-26T04:55:29.019Z,18.55
2022-08-26T04:58:10.141Z,18.67
2022-08-26T05:00:38.704Z,18.70
2022-08-26T05:03:07.657Z,18.75
2022-08-26T05:05:41.441Z,18.76
2022-08-26T05:08:09.983Z,18.77
2022-08-26T05:10:42.780Z,18.82
2022-08-26T05:13:13.389Z,18.88
2022-08-26T05:15:44.167Z,18.94
2022-08-26T05:18:13.784Z,19.04
2022-08-26T05:20:45.540Z,19.05
2022-08-26T05:23:15.684Z,19.03
2022-08-26T05:25:45.965Z,19.10
2022-08-26T05:28:15.955Z,19.14
2022-08-26T05:30:44.459Z,19.10
2022-08-26T05:33:13.261Z,19.13
2022-08-26T05:35:43.907Z,19.18
2022-08-26T05:38:15.598Z,19.24
2022-08-26T05:40:45.615Z,19.09
2022-08-26T05:43:14.095Z,19.33
2022-08-26T05:45:46.208Z,19.37
2022-08-26T05:48:15.041Z,19.25
2022-08-26T05:50:46.892Z,19.48
2022-08-26T05:53:17.439Z,19.54
2022-08-26T05:55:47.174Z,19.59
2022-08-26T05:58:15.002Z,19.63
2022-08-26T06:00:45.302Z,19.68
2022-08-26T06:03:13.036Z,19.72
2022-08-26T06:05:41.374Z,19.78
2022-08-26T06:08:14.212Z,19.80
2022-08-26T06:10:50.978Z,19.85
2022-08-26T06:13:21.886Z,19.75
2022-08-26T06:15:52.120Z,19.88
2022-08-26T06:18:22.089Z,19.87
2022-08-26T06:20:57.731Z,19.98
2022-08-26T06:23:47.238Z,19.96
2022-08-26T06:26:16.903Z,20.01
2022-08-26T06:28:45.798Z,20.12
2022-08-26T06:31:15.386Z,20.16
2022-08-26T06:33:44.495Z,20.05
2022-08-26T06:36:17.349Z,20.23
2022-08-26T06:38:48.585Z,20.11
2022-08-26T06:41:16.945Z,20.16
2022-08-26T06:43:45.460Z,20.19
2022-08-26T06:46:14.956Z,20.27
2022-08-26T06:48:43.120Z,20.35
2022-08-26T06:51:13.134Z,20.42
2022-08-26T06:53:43.027Z,20.34
2022-08-26T06:56:12.783Z,20.39
2022-08-26T06:58:41.850Z,20.44
2022-08-26T07:01:17.383Z,20.50
2022-08-26T07:03:46.728Z,20.42
2022-08-26T07:06:14.972Z,20.51
2022-08-26T07:08:44.468Z,20.48
2022-08-26T07:11:14.284Z,20.66
2022-08-26T07:13:42.156Z,20.70
2022-08-26T07:16:15.392Z,20.75
2022-08-26T07:18:45.759Z,20.79
2022-08-26T07:21:17.219Z,20.64
2022-08-26T07:23:46.387Z,20.59
2022-08-26T07:26:19.154Z,20.68
2022-08-26T07:28:50.697Z,20.81
2022-08-26T07:31:23.704Z,20.86
2022-08-26T07:33:52.054Z,20.92
2022-08-26T07:36:21.364Z,21.00
2022-08-26T07:38:49.321Z,20.99
2022-08-26T07:41:22.839Z,21.02
2022-08-26T07:43:50.850Z,21.00
2022-08-26T07:46:20.782Z,21.11
2022-08-26T07:48:56.360Z,21.25
2022-08-26T07:51:25.009Z,21.15
2022-08-26T07:53:53.314Z,21.19
2022-08-26T07:56:23.146Z,21.28
2022-08-26T07:58:52.037Z,21.16
2022-08-26T08:01:20.619Z,21.20
2022-08-26T08:03:51.587Z,21.31
2022-08-26T08:06:20.195Z,21.27
2022-08-26T08:08:48.117Z,21.33
2022-08-26T08:11:20.501Z,21.36
2022-08-26T08:13:56.348Z,21.38
2022-08-26T08:16:25.922Z,21.44
2022-08-26T08:18:54.462Z,21.49
2022-08-26T08:21:24.313Z,21.47
2022-08-26T08:23:52.979Z,21.48
2022-08-26T08:26:21.349Z,21.34
2022-08-26T08:28:50.502Z,21.52
2022-08-26T08:31:45.354Z,21.56
2022-08-26T08:34:10.853Z,21.62
2022-08-26T08:36:38.755Z,21.60
2022-08-26T08:39:07.072Z,21.47
2022-08-26T08:41:47.178Z,21.62
2022-08-26T08:44:20.778Z,21.60
2022-08-26T08:46:57.764Z,21.72
2022-08-26T08:49:26.189Z,21.69
2022-08-26T08:51:58.783Z,21.70
2022-08-26T08:54:29.069Z,21.75
2022-08-26T08:57:04.114Z,21.61
2022-08-26T08:59:35.785Z,21.72
2022-08-26T09:02:17.895Z,21.72
2022-08-26T09:04:58.893Z,21.78
2022-08-26T09:07:36.354Z,21.80
2022-08-26T09:10:18.756Z,21.76
2022-08-26T09:12:48.771Z,21.78
2022-08-26T09:15:25.482Z,21.72
2022-08-26T09:18:01.293Z,21.70
2022-08-26T09:20:43.140Z,21.71
2022-08-26T09:23:14.372Z,21.61
2022-08-26T09:25:50.491Z,21.53
2022-08-26T09:28:20.529Z,21.67
2022-08-26T09:31:10.657Z,21.62
2022-08-26T09:33:39.327Z,21.77
2022-08-26T09:36:22.793Z,21.78
2022-08-26T09:38:53.772Z,21.73
2022-08-26T09:41:27.862Z,21.79
2022-08-26T09:44:17.497Z,21.65
2022-08-26T09:47:00.551Z,21.70
2022-08-26T09:49:35.819Z,21.77
2022-08-26T09:52:21.830Z,21.84
2022-08-26T09:55:03.515Z,21.97
2022-08-26T09:57:34.033Z,21.91
2022-08-26T10:00:02.546Z,22.00
2022-08-26T10:02:41.618Z,22.09
2022-08-26T10:05:18.942Z,22.11
2022-08-26T10:07:51.386Z,22.07
2022-08-26T10:10:24.495Z,22.13
2022-08-26T10:12:59.957Z,22.39
2022-08-26T10:15:29.052Z,22.70
2022-08-26T10:18:05.512Z,23.10
2022-08-26T10:20:39.080Z,23.16
2022-08-26T10:23:14.489Z,23.00
2022-08-26T10:25:47.769Z,22.94
2022-08-26T10:28:26.570Z,22.82
2022-08-26T10:31:00.638Z,22.75
2022-08-26T10:33:30.135Z,22.66
2022-08-26T10:36:00.610Z,22.72
2022-08-26T10:38:34.253Z,22.58
2022-08-26T10:41:10.338Z,22.65
2022-08-26T10:43:42.796Z,22.47
2022-08-26T10:46:17.718Z,22.69
2022-08-26T10:48:53.391Z,22.63
2022-08-26T10:51:27.780Z,22.69
2022-08-26T10:54:03.400Z,22.71
2022-08-26T10:56:49.458Z,22.60
2022-08-26T10:59:25.097Z,22.69
2022-08-26T11:02:07.441Z,22.74
2022-08-26T11:04:48.404Z,22.61
2022-08-26T11:07:39.329Z,22.52
2022-08-26T11:10:12.307Z,22.47
2022-08-26T11:12:55.623Z,22.51
2022-08-26T11:16:01.315Z,22.66
2022-08-26T11:18:41.986Z,22.68
2022-08-26T11:21:47.715Z,22.87
2022-08-26T11:24:56.741Z,22.95
2022-08-26T11:28:03.846Z,22.97
2022-08-26T11:30:58.023Z,22.90
2022-08-26T11:33:48.198Z,23.13
2022-08-26T11:36:41.699Z,23.00
2022-08-26T11:39:21.126Z,23.09
2022-08-26T11:41:52.814Z,23.16
2022-08-26T11:44:23.792Z,23.44
2022-08-26T11:47:01.240Z,23.31
2022-08-26T11:49:31.493Z,23.46
2022-08-26T11:52:20.808Z,23.58
2022-08-26T11:55:02.763Z,23.27
2022-08-26T11:57:33.681Z,23.49
2022-08-26T12:00:02.376Z,23.32
2022-08-26T12:02:31.822Z,23.50
2022-08-26T12:05:00.877Z,23.53
2022-08-26T12:07:30.490Z,23.36
2022-08-26T12:10:02.212Z,23.50
2022-08-26T12:12:34.934Z,23.39
2022-08-26T12:15:12.606Z,23.41
2022-08-26T12:17:43.966Z,23.28
2022-08-26T12:20:31.169Z,23.30
2022-08-26T12:23:00.232Z,23.34
2022-08-26T12:25:35.997Z,23.39
2022-08-26T12:28:06.630Z,23.56
2022-08-26T12:30:34.460Z,23.68
2022-08-26T12:33:22.063Z,23.92
2022-08-26T12:35:56.639Z,23.94
2022-08-26T12:38:25.969Z,23.84
2022-08-26T12:40:54.560Z,23.79
2022-08-26T12:43:43.290Z,23.91
2022-08-26T12:46:13.834Z,23.92
2022-08-26T12:48:45.727Z,23.70
2022-08-26T12:51:24.649Z,23.81
2022-08-26T12:53:53.077Z,23.54
2022-08-26T12:56:27.816Z,23.75
2022-08-26T12:59:12.211Z,23.73
2022-08-26T13:01:44.194Z,23.55
2022-08-26T13:04:36.789Z,23.65
2022-08-26T13:07:23.045Z,23.70
2022-08-26T13:09:52.206Z,23.74
2022-08-26T13:12:28.416Z,23.82
2022-08-26T13:14:58.643Z,23.76
2022-08-26T13:17:27.653Z,23.60
2022-08-26T13:20:03.234Z,23.69
2022-08-26T13:22:32.085Z,23.60
2022-08-26T13:24:59.941Z,23.41
2022-08-26T13:27:28.586Z,23.48
2022-08-26T13:29:58.969Z,23.39
2022-08-26T13:32:27.499Z,23.35
2022-08-26T13:34:58.288Z,23.40
2022-08-26T13:37:34.178Z,23.36
2022-08-26T13:40:04.533Z,23.18
2022-08-26T13:42:32.415Z,23.38
2022-08-26T13:45:02.337Z,23.34
2022-08-26T13:47:30.133Z,23.39
2022-08-26T13:49:59.361Z,23.37
2022-08-26T13:52:30.994Z,23.41
2022-08-26T13:55:00.133Z,23.38
2022-08-26T13:57:30.059Z,23.37
2022-08-26T13:59:59.040Z,23.29
2022-08-26T14:02:27.429Z,23.37
2022-08-26T14:04:55.951Z,23.40
2022-08-26T14:07:25.266Z,23.27
2022-08-26T14:09:53.474Z,23.21
2022-08-26T14:12:21.209Z,23.33
2022-08-26T14:14:48.992Z,23.38
2022-08-26T14:17:20.126Z,23.37
2022-08-26T14:19:49.309Z,23.31
2022-08-26T14:22:18.945Z,23.33
2022-08-26T14:24:48.478Z,23.52
2022-08-26T14:27:16.281Z,23.56
2022-08-26T14:29:44.134Z,23.56
2022-08-26T14:32:16.915Z,23.39
2022-08-26T14:34:48.754Z,23.46
2022-08-26T14:37:17.706Z,23.44
2022-08-26T14:39:45.642Z,23.47
2022-08-26T14:42:16.833Z,23.38
2022-08-26T14:44:46.883Z,23.38
2022-08-26T14:47:14.903Z,23.10
2022-08-26T14:49:42.693Z,23.18
2022-08-26T14:52:10.523Z,22.97
2022-08-26T14:54:37.772Z,23.00
2022-08-26T14:57:08.258Z,23.04
2022-08-26T14:59:39.230Z,22.77
2022-08-26T15:02:10.545Z,22.96
2022-08-26T15:04:42.424Z,22.91
2022-08-26T15:07:12.626Z,22.81
2022-08-26T15:09:40.854Z,22.89
2022-08-26T15:12:08.926Z,22.83
2022-08-26T15:14:38.066Z,23.04
2022-08-26T15:17:06.347Z,23.02
2022-08-26T15:19:34.068Z,22.95
2022-08-26T15:22:01.771Z,22.98
2022-08-26T15:24:29.975Z,22.96
2022-08-26T15:26:58.248Z,22.88
2022-08-26T15:29:25.986Z,22.85
2022-08-26T15:31:55.266Z,22.62
2022-08-26T15:34:25.336Z,22.53
2022-08-26T15:36:53.085Z,22.41
2022-08-26T15:39:21.459Z,22.52
2022-08-26T15:41:49.185Z,22.40
2022-08-26T15:44:20.790Z,22.46
2022-08-26T15:46:50.066Z,22.47
2022-08-26T15:49:19.469Z,22.57
2022-08-26T15:51:50.200Z,22.47
2022-08-26T15:54:20.605Z,22.45
2022-08-26T15:56:51.619Z,22.29
2022-08-26T15:59:21.050Z,22.32
2022-08-26T16:01:48.997Z,22.19
2022-08-26T16:04:17.561Z,22.00
2022-08-26T16:06:50.303Z,22.13
2022-08-26T16:09:18.886Z,21.89
2022-08-26T16:11:46.670Z,22.13
2022-08-26T16:14:14.551Z,22.11
2022-08-26T16:16:42.396Z,22.03
2022-08-26T16:19:11.824Z,21.89
2022-08-26T16:21:41.524Z,21.85
2022-08-26T16:24:10.928Z,22.01
2022-08-26T16:26:40.566Z,22.00
2022-08-26T16:29:12.949Z,22.01
2022-08-26T16:31:41.837Z,22.01
2022-08-26T16:34:10.716Z,21.90
2022-08-26T16:36:40.176Z,21.85
2022-08-26T16:39:10.746Z,21.87
2022-08-26T16:41:38.722Z,21.85
2022-08-26T16:44:08.634Z,21.70
2022-08-26T16:46:36.806Z,21.77
2022-08-26T16:49:04.801Z,21.65
2022-08-26T16:51:38.114Z,21.68
2022-08-26T16:54:07.923Z,21.64
2022-08-26T16:56:37.717Z,21.50
2022-08-26T16:59:07.797Z,21.52
2022-08-26T17:01:35.630Z,21.48
2022-08-26T17:04:03.954Z,21.48
2022-08-26T17:06:31.838Z,21.48
2022-08-26T17:08:59.567Z,21.39
2022-08-26T17:11:27.367Z,21.45
2022-08-26T17:13:56.952Z,21.31
2022-08-26T17:16:27.118Z,21.36
2022-08-26T17:18:56.310Z,21.44
2022-08-26T17:21:24.741Z,21.45
2022-08-26T17:23:53.066Z,21.10
2022-08-26T17:26:21.243Z,21.33
2022-08-26T17:28:50.537Z,21.31
2022-08-26T17:31:20.410Z,21.18
2022-08-26T17:33:53.414Z,21.24
2022-08-26T17:36:23.118Z,21.16
2022-08-26T17:38:57.119Z,21.23
2022-08-26T17:41:25.298Z,21.19
2022-08-26T17:43:53.131Z,21.05
2022-08-26T17:46:22.381Z,21.10
2022-08-26T17:48:50.249Z,21.14
2022-08-26T17:51:20.211Z,21.11
2022-08-26T17:53:48.911Z,20.85
2022-08-26T17:56:18.978Z,21.04
2022-08-26T17:58:51.064Z,20.99
2022-08-26T18:01:20.239Z,21.05
2022-08-26T18:03:49.634Z,20.96
2022-08-26T18:06:17.796Z,20.85
2022-08-26T18:08:46.070Z,20.91
2022-08-26T18:11:16.114Z,20.86
2022-08-26T18:13:47.442Z,20.88
2022-08-26T18:16:16.941Z,20.92
2022-08-26T18:18:45.049Z,20.83
2022-08-26T18:21:16.650Z,20.80
2022-08-26T18:23:45.281Z,20.80
2022-08-26T18:26:17.799Z,20.80
2022-08-26T18:28:45.602Z,20.76
2022-08-26T18:31:13.529Z,20.76
2022-08-26T18:33:43.169Z,20.81
2022-08-26T18:36:19.101Z,20.74
2022-08-26T18:38:47.258Z,20.69
2022-08-26T18:41:18.448Z,20.69
2022-08-26T18:43:46.195Z,20.48
2022-08-26T18:46:14.136Z,20.55
2022-08-26T18:48:41.941Z,20.58
2022-08-26T18:51:10.228Z,20.48
2022-08-26T18:53:42.389Z,20.44
2022-08-26T18:56:10.284Z,20.40
2022-08-26T18:58:38.126Z,20.33
2022-08-26T19:01:06.105Z,20.42
2022-08-26T19:03:34.337Z,20.41
2022-08-26T19:06:02.070Z,20.50
2022-08-26T19:08:30.129Z,20.54
2022-08-26T19:11:00.531Z,20.46
2022-08-26T19:13:28.255Z,20.45
2022-08-26T19:15:55.995Z,20.50
2022-08-26T19:18:23.762Z,20.43
2022-08-26T19:20:51.544Z,20.41
2022-08-26T19:23:31.426Z,20.37
2022-08-26T19:26:04.840Z,20.40
2022-08-26T19:28:32.946Z,20.26
2022-08-26T19:31:02.605Z,20.32
2022-08-26T19:33:30.628Z,20.23
2022-08-26T19:35:58.786Z,20.15
2022-08-26T19:38:27.755Z,20.23
2022-08-26T19:40:55.680Z,20.12
2022-08-26T19:43:24.893Z,20.10
2022-08-26T19:45:53.029Z,20.15
2022-08-26T19:48:20.968Z,20.22
2022-08-26T19:50:48.936Z,20.20
2022-08-26T19:53:16.754Z,20.12
2022-08-26T19:55:44.970Z,19.95
2022-08-26T19:58:12.750Z,20.10
2022-08-26T20:00:42.780Z,20.08
2022-08-26T20:03:13.034Z,20.10
2022-08-26T20:05:43.854Z,20.00
2022-08-26T20:08:22.233Z,19.98
2022-08-26T20:10:50.998Z,19.97
2022-08-26T20:13:19.099Z,19.94
2022-08-26T20:15:48.450Z,19.87
2022-08-26T20:18:30.133Z,19.87
2022-08-26T20:21:15.895Z,19.84
2022-08-26T20:23:44.420Z,19.80
2022-08-26T20:26:12.237Z,19.77
2022-08-26T20:28:39.992Z,19.82
2022-08-26T20:31:09.596Z,19.67
2022-08-26T20:33:46.236Z,19.80
2022-08-26T20:36:15.399Z,19.73
2022-08-26T20:38:43.163Z,19.69
2022-08-26T20:41:11.960Z,19.60
2022-08-26T20:43:39.700Z,19.55
2022-08-26T20:46:10.574Z,19.50
2022-08-26T20:48:45.788Z,19.52
2022-08-26T20:51:13.739Z,19.51
2022-08-26T20:53:41.632Z,19.46
2022-08-26T20:56:11.696Z,19.47
2022-08-26T20:58:40.951Z,19.41
2022-08-26T21:01:18.935Z,19.24
2022-08-26T21:03:47.279Z,19.27
2022-08-26T21:06:15.250Z,19.14
2022-08-26T21:08:43.327Z,19.08
2022-08-26T21:11:12.685Z,19.00
2022-08-26T21:14:01.609Z,18.88
2022-08-26T21:16:30.163Z,18.66
2022-08-26T21:18:58.301Z,18.80
2022-08-26T21:21:28.743Z,18.76
2022-08-26T21:23:57.137Z,18.73
2022-08-26T21:26:25.326Z,18.69
2022-08-26T21:28:53.542Z,18.68
2022-08-26T21:31:23.363Z,18.56
2022-08-26T21:33:53.228Z,18.51
2022-08-26T21:36:21.526Z,18.40
2022-08-26T21:38:49.276Z,18.49
2022-08-26T21:41:22.100Z,18.44
2022-08-26T21:43:51.168Z,18.35
2022-08-26T21:46:21.931Z,18.32
2022-08-26T21:48:54.618Z,18.22
2022-08-26T21:51:25.385Z,18.15
2022-08-26T21:53:53.263Z,18.17
2022-08-26T21:56:22.157Z,18.19
2022-08-26T21:58:50.488Z,18.02
2022-08-26T22:01:22.263Z,18.05
2022-08-26T22:03:52.586Z,18.08
2022-08-26T22:06:28.720Z,17.97
2022-08-26T22:08:57.194Z,17.98
2022-08-26T22:11:25.716Z,17.94
2022-08-26T22:13:53.479Z,17.84
2022-08-26T22:16:21.253Z,17.81
2022-08-26T22:18:49.122Z,17.70
2022-08-26T22:21:24.803Z,17.70
2022-08-26T22:23:57.860Z,17.69
2022-08-26T22:26:29.099Z,17.72
2022-08-26T22:28:59.031Z,17.73
2022-08-26T22:31:35.262Z,17.71
2022-08-26T22:34:08.112Z,17.63
2022-08-26T22:36:43.092Z,17.66
2022-08-26T22:39:13.040Z,17.69
2022-08-26T22:41:41.205Z,17.61
2022-08-26T22:44:09.082Z,17.56
2022-08-26T22:46:38.557Z,17.76
2022-08-26T22:49:06.679Z,17.64
2022-08-26T22:51:34.523Z,17.62
2022-08-26T22:54:03.679Z,17.65
2022-08-26T22:56:31.375Z,17.66
2022-08-26T22:58:59.146Z,17.60
2022-08-26T23:01:27.173Z,17.49
2022-08-26T23:03:55.125Z,17.55
2022-08-26T23:06:23.038Z,17.55
2022-08-26T23:08:51.047Z,17.46
2022-08-26T23:11:20.135Z,17.53
2022-08-26T23:13:48.105Z,17.43
2022-08-26T23:16:15.964Z,17.43
2022-08-26T23:18:43.884Z,17.40
2022-08-26T23:21:11.685Z,17.34
2022-08-26T23:23:39.410Z,17.37
2022-08-26T23:26:08.161Z,17.39
2022-08-26T23:28:39.573Z,17.40
2022-08-26T23:31:08.779Z,17.28
2022-08-26T23:33:53.964Z,17.33
2022-08-26T23:36:22.915Z,17.13
2022-08-26T23:38:53.040Z,17.29
2022-08-26T23:41:21.253Z,17.22
2022-08-26T23:43:50.629Z,17.22
2022-08-26T23:46:18.991Z,17.27
2022-08-26T23:48:46.787Z,17.20
2022-08-26T23:51:32.070Z,17.23
2022-08-26T23:53:59.920Z,17.31
2022-08-26T23:56:29.162Z,17.11
2022-08-26T23:58:58.343Z,17.19
